createdAt,value
2019-04-21T00:00:44.694Z,98646.70
2019-04-21T00:03:25.634Z,98648.32
2019-04-21T00:06:09.477Z,98654.05
2019-04-21T00:08:50.884Z,98651.27
2019-04-21T00:11:30.859Z,98657.25
2019-04-21T00:13:52.605Z,98655.92
2019-04-21T00:16:29.066Z,98657.08
2019-04-21T00:19:19.641Z,98662.84
2019-04-21T00:21:58.115Z,98661.77
2019-04-21T00:24:41.365Z,98663.39
2019-04-21T00:27:22.955Z,98662.11
2019-04-21T00:29:58.148Z,98654.72
2019-04-21T00:32:28.160Z,98661.60
2019-04-21T00:35:00.383Z,98661.30
2019-04-21T00:37:48.070Z,98661.22
2019-04-21T00:40:24.005Z,98664.38
2019-04-21T00:43:01.327Z,98666.81
2019-04-21T00:45:31.367Z,98664.41
2019-04-21T00:48:16.620Z,98667.95
2019-04-21T00:51:05.471Z,98658.66
2019-04-21T00:53:37.130Z,98666.03
2019-04-21T00:56:11.910Z,98671.25
2019-04-21T00:58:47.755Z,98671.50
2019-04-21T01:01:14.950Z,98667.66
2019-04-21T01:03:58.114Z,98676.71
2019-04-21T01:06:35.183Z,98677.73
2019-04-21T01:09:06.375Z,98693.47
2019-04-21T01:11:44.466Z,98690.19
2019-04-21T01:14:29.804Z,98692.12
2019-04-21T01:16:57.727Z,98700.91
2019-04-21T01:19:25.133Z,98700.61
2019-04-21T01:21:47.490Z,98705.81
2019-04-21T01:24:28.909Z,98709.41
2019-04-21T01:27:06.452Z,98709.96
2019-04-21T01:29:55.094Z,98710.17
2019-04-21T01:32:29.566Z,98712.90
2019-04-21T01:35:08.577Z,98715.11
2019-04-21T01:37:52.437Z,98718.05
2019-04-21T01:40:22.878Z,98720.95
2019-04-21T01:43:01.134Z,98724.23
2019-04-21T01:45:26.726Z,98727.31
2019-04-21T01:48:03.563Z,98734.44
2019-04-21T01:50:41.196Z,98741.02
2019-04-21T01:53:30.683Z,98747.30
2019-04-21T01:56:09.385Z,98748.91
2019-04-21T01:58:38.050Z,98759.34
2019-04-21T02:01:19.355Z,98766.67
2019-04-21T02:03:55.874Z,98772.18
2019-04-21T02:06:33.457Z,98781.44
2019-04-21T02:09:10.120Z,98780.78
2019-04-21T02:11:52.050Z,98774.55
2019-04-21T02:14:31.772Z,98790.60
2019-04-21T02:16:59.595Z,98788.61
2019-04-21T02:19:31.238Z,98794.48
2019-04-21T02:22:04.911Z,98807.28
2019-04-21T02:25:08.281Z,98807.19
2019-04-21T02:27:26.514Z,98810.13
2019-04-21T02:30:00.052Z,98815.84
2019-04-21T02:32:53.815Z,98824.03
2019-04-21T02:35:30.295Z,98832.18
2019-04-21T02:38:03.786Z,98837.89
2019-04-21T02:40:38.935Z,98840.38
2019-04-21T02:43:11.341Z,98838.95
2019-04-21T02:45:53.698Z,98841.27
2019-04-21T02:50:57.713Z,98845.97
2019-04-21T02:54:07.376Z,98855.02
2019-04-21T02:56:17.995Z,98858.52
2019-04-21T03:01:50.332Z,98862.58
2019-04-21T03:04:43.096Z,98866.93
2019-04-21T03:07:21.610Z,98867.41
2019-04-21T03:09:59.755Z,98871.30
2019-04-21T03:12:35.533Z,98878.38
2019-04-21T03:15:25.522Z,98878.50
2019-04-21T03:18:38.045Z,98878.84
2019-04-21T03:23:07.697Z,98880.91
2019-04-21T03:28:14.173Z,98882.65
2019-04-21T03:41:21.457Z,98894.95
2019-04-21T03:43:50.160Z,98892.84
2019-04-21T03:49:11.857Z,98899.75
2019-04-21T03:54:15.530Z,98898.48
2019-04-21T03:59:25.013Z,98907.25
2019-04-21T04:02:47.172Z,98909.23
2019-04-21T04:05:20.006Z,98915.53
2019-04-21T04:08:08.735Z,98915.56
2019-04-21T04:10:34.840Z,98918.02
2019-04-21T04:13:14.121Z,98922.97
2019-04-21T04:18:44.421Z,98924.38
2019-04-21T04:21:05.794Z,98920.81
2019-04-21T04:24:02.399Z,98921.38
2019-04-21T04:26:19.371Z,98924.70
2019-04-21T04:31:35.486Z,98916.21
2019-04-21T04:34:04.768Z,98919.24
2019-04-21T04:39:43.154Z,98920.35
2019-04-21T04:42:35.054Z,98921.66
2019-04-21T04:47:37.110Z,98912.74
2019-04-21T04:50:09.930Z,98910.87
2019-04-21T04:52:48.982Z,98909.20
2019-04-21T04:55:26.189Z,98908.36
2019-04-21T05:00:43.422Z,98903.37
2019-04-21T05:06:46.170Z,98901.50
2019-04-21T05:09:21.558Z,98901.50
2019-04-21T05:11:48.752Z,98901.09
2019-04-21T05:14:21.803Z,98897.73
2019-04-21T05:17:02.306Z,98895.27
2019-04-21T05:19:38.160Z,98889.23
2019-04-21T05:22:11.054Z,98890.55
2019-04-21T05:24:36.107Z,98892.05
2019-04-21T05:27:29.415Z,98890.13
2019-04-21T05:30:17.375Z,98893.11
2019-04-21T05:33:05.606Z,98889.01
2019-04-21T05:36:04.106Z,98879.38
2019-04-21T05:38:53.469Z,98883.25
2019-04-21T05:41:20.657Z,98880.17
2019-04-21T05:44:12.827Z,98876.37
2019-04-21T05:46:49.508Z,98874.78
2019-04-21T05:49:42.084Z,98875.66
2019-04-21T05:52:08.101Z,98879.55
2019-04-21T05:54:57.437Z,98883.95
2019-04-21T05:57:31.846Z,98874.09
2019-04-21T06:00:08.854Z,98872.73
2019-04-21T06:02:43.788Z,98871.94
2019-04-21T06:08:03.758Z,98862.61
2019-04-21T06:10:42.273Z,98863.19
2019-04-21T06:13:24.417Z,98861.24
2019-04-21T06:18:35.355Z,98855.13
2019-04-21T06:21:07.206Z,98844.66
2019-04-21T06:23:36.779Z,98841.84
2019-04-21T06:26:27.996Z,98841.06
2019-04-21T06:28:50.404Z,98836.10
2019-04-21T06:31:57.398Z,98831.45
2019-04-21T06:34:06.757Z,98828.72
2019-04-21T06:36:52.702Z,98828.98
2019-04-21T06:39:24.154Z,98825.97
2019-04-21T06:41:53.110Z,98821.03
2019-04-21T06:44:33.064Z,98823.48
2019-04-21T06:47:23.230Z,98820.80
2019-04-21T06:49:44.392Z,98819.44
2019-04-21T06:52:34.791Z,98812.58
2019-04-21T06:55:03.145Z,98808.80
2019-04-21T06:57:34.775Z,98799.78
2019-04-21T07:00:07.407Z,98801.41
2019-04-21T07:03:08.349Z,98798.97
2019-04-21T07:05:26.336Z,98795.14
2019-04-21T07:08:14.921Z,98792.41
2019-04-21T07:10:31.819Z,98793.52
2019-04-21T07:13:07.933Z,98796.27
2019-04-21T07:16:02.838Z,98782.81
2019-04-21T07:18:31.431Z,98775.66
2019-04-21T07:21:00.054Z,98781.98
2019-04-21T07:23:39.971Z,98771.01
2019-04-21T07:26:14.763Z,98769.06
2019-04-21T07:28:49.882Z,98756.15
2019-04-21T07:31:24.962Z,98755.05
2019-04-21T07:34:01.577Z,98745.97
2019-04-21T07:39:06.219Z,98731.14
2019-04-21T07:41:44.050Z,98732.81
2019-04-21T07:44:17.027Z,98728.40
2019-04-21T07:46:50.519Z,98728.70
2019-04-21T07:49:57.371Z,98727.05
2019-04-21T07:52:53.207Z,98720.20
2019-04-21T07:57:57.196Z,98708.11
2019-04-21T08:00:45.083Z,98701.51
2019-04-21T08:03:14.137Z,98689.98
2019-04-21T08:05:53.723Z,98689.97
2019-04-21T08:08:26.566Z,98686.13
2019-04-21T08:11:03.710Z,98681.20
2019-04-21T08:13:42.975Z,98677.62
2019-04-21T08:16:17.253Z,98670.21
2019-04-21T08:18:52.421Z,98668.81
2019-04-21T08:21:28.291Z,98664.16
2019-04-21T08:23:59.682Z,98653.45
2019-04-21T08:26:45.200Z,98657.02
2019-04-21T08:29:25.839Z,98644.09
2019-04-21T08:32:08.084Z,98637.53
2019-04-21T08:37:08.902Z,98636.13
2019-04-21T08:39:51.798Z,98635.31
2019-04-21T08:42:21.608Z,98629.82
2019-04-21T08:44:52.445Z,98629.26
2019-04-21T08:47:25.650Z,98622.67
2019-04-21T08:50:02.157Z,98625.14
2019-04-21T08:52:44.479Z,98619.36
2019-04-21T08:55:25.362Z,98613.05
2019-04-21T08:58:25.668Z,98602.88
2019-04-21T09:01:01.801Z,98607.84
2019-04-21T09:03:51.956Z,98599.03
2019-04-21T09:06:50.045Z,98599.03
2019-04-21T09:09:03.660Z,98597.09
2019-04-21T09:11:40.440Z,98594.62
2019-04-21T09:14:20.766Z,98588.28
2019-04-21T09:16:52.837Z,98576.45
2019-04-21T09:19:38.626Z,98571.79
2019-04-21T09:22:05.745Z,98570.66
2019-04-21T09:24:42.708Z,98566.53
2019-04-21T09:27:15.295Z,98564.31
2019-04-21T09:29:40.623Z,98563.77
2019-04-21T09:32:16.621Z,98558.80
2019-04-21T09:34:48.934Z,98549.45
2019-04-21T09:37:32.985Z,98557.70
2019-04-21T09:40:00.908Z,98549.73
2019-04-21T09:42:44.365Z,98557.95
2019-04-21T09:45:14.291Z,98548.31
2019-04-21T09:47:59.064Z,98549.41
2019-04-21T09:50:24.646Z,98540.92
2019-04-21T09:53:10.457Z,98539.53
2019-04-21T09:55:45.246Z,98534.57
2019-04-21T09:58:23.219Z,98532.04
2019-04-21T10:01:01.478Z,98527.34
2019-04-21T10:03:24.227Z,98525.16
2019-04-21T10:05:58.759Z,98516.09
2019-04-21T10:08:34.181Z,98514.67
2019-04-21T10:11:09.865Z,98515.24
2019-04-21T10:13:44.330Z,98509.22
2019-04-21T10:16:38.272Z,98510.02
2019-04-21T10:19:13.327Z,98505.86
2019-04-21T10:21:50.148Z,98501.75
2019-04-21T10:24:24.569Z,98502.30
2019-04-21T10:26:59.062Z,98500.63
2019-04-21T10:29:35.789Z,98491.45
2019-04-21T10:32:09.360Z,98493.09
2019-04-21T10:34:43.710Z,98493.02
2019-04-21T10:37:18.800Z,98489.14
2019-04-21T10:39:53.859Z,98489.07
2019-04-21T10:42:29.108Z,98479.68
2019-04-21T10:45:03.605Z,98482.04
2019-04-21T10:47:38.859Z,98473.16
2019-04-21T10:50:13.488Z,98473.41
2019-04-21T10:53:09.292Z,98468.52
2019-04-21T10:55:56.690Z,98468.87
2019-04-21T10:58:38.382Z,98470.33
2019-04-21T11:01:16.675Z,98466.28
2019-04-21T11:04:29.019Z,98468.25
2019-04-21T11:07:06.673Z,98460.66
2019-04-21T11:09:34.155Z,98461.85
2019-04-21T11:12:08.540Z,98459.46
2019-04-21T11:14:43.092Z,98467.44
2019-04-21T11:17:18.217Z,98465.23
2019-04-21T11:19:54.861Z,98465.78
2019-04-21T11:22:31.026Z,98461.31
2019-04-21T11:25:07.004Z,98459.17
2019-04-21T11:27:42.923Z,98457.01
2019-04-21T11:30:17.807Z,98454.53
2019-04-21T11:32:53.116Z,98448.50
2019-04-21T11:35:27.780Z,98452.63
2019-04-21T11:38:14.493Z,98449.33
2019-04-21T11:40:45.541Z,98447.42
2019-04-21T11:43:19.978Z,98447.95
2019-04-21T11:45:54.754Z,98439.20
2019-04-21T11:48:30.532Z,98439.47
2019-04-21T11:51:04.925Z,98446.59
2019-04-21T11:53:39.195Z,98441.68
2019-04-21T11:56:14.625Z,98444.41
2019-04-21T11:58:49.955Z,98442.80
2019-04-21T12:01:25.685Z,98436.48
2019-04-21T12:04:00.023Z,98442.20
2019-04-21T12:06:40.935Z,98439.75
2019-04-21T12:09:11.771Z,98437.30
2019-04-21T12:11:47.412Z,98442.23
2019-04-21T12:14:21.798Z,98443.33
2019-04-21T12:16:57.186Z,98437.32
2019-04-21T12:19:32.589Z,98441.95
2019-04-21T12:22:17.560Z,98438.10
2019-04-21T12:24:44.897Z,98442.20
2019-04-21T12:27:20.355Z,98443.59
2019-04-21T12:29:55.512Z,98441.95
2019-04-21T12:32:40.182Z,98449.62
2019-04-21T12:35:15.756Z,98443.04
2019-04-21T12:37:51.073Z,98441.37
2019-04-21T12:40:26.411Z,98441.41
2019-04-21T12:43:00.944Z,98449.62
2019-04-21T12:45:35.904Z,98445.79
2019-04-21T12:48:10.557Z,98455.36
2019-04-21T12:50:45.797Z,98450.19
2019-04-21T12:53:21.435Z,98457.86
2019-04-21T12:55:55.797Z,98460.09
2019-04-21T12:58:31.127Z,98464.71
2019-04-21T13:01:05.366Z,98464.44
2019-04-21T13:03:39.833Z,98467.99
2019-04-21T13:06:14.161Z,98467.16
2019-04-21T13:08:56.863Z,98464.73
2019-04-21T13:11:25.514Z,98467.70
2019-04-21T13:13:59.888Z,98471.16
2019-04-21T13:16:35.557Z,98473.91
2019-04-21T13:19:09.608Z,98470.06
2019-04-21T13:21:43.776Z,98474.19
2019-04-21T13:24:17.918Z,98490.57
2019-04-21T13:26:58.097Z,98480.64
2019-04-21T13:29:30.184Z,98480.38
2019-04-21T13:32:05.491Z,98482.42
2019-04-21T13:34:42.095Z,98481.28
2019-04-21T13:37:17.332Z,98481.86
2019-04-21T13:40:34.157Z,98484.83
2019-04-21T13:42:58.590Z,98488.33
2019-04-21T13:45:32.167Z,98486.66
2019-04-21T13:48:06.622Z,98495.70
2019-04-21T13:50:41.433Z,98494.31
2019-04-21T13:53:16.639Z,98494.84
2019-04-21T13:55:52.618Z,98498.11
2019-04-21T13:58:28.168Z,98499.20
2019-04-21T14:01:03.541Z,98501.41
2019-04-21T14:03:37.913Z,98505.99
2019-04-21T14:06:12.166Z,98502.37
2019-04-21T14:08:54.720Z,98506.19
2019-04-21T14:11:29.263Z,98510.33
2019-04-21T14:14:03.252Z,98511.43
2019-04-21T14:16:38.182Z,98509.00
2019-04-21T14:19:13.139Z,98508.45
2019-04-21T14:21:49.880Z,98513.95
2019-04-21T14:24:22.968Z,98516.46
2019-04-21T14:26:58.324Z,98516.75
2019-04-21T14:29:33.472Z,98524.72
2019-04-21T14:32:08.374Z,98521.97
2019-04-21T14:34:44.095Z,98523.05
2019-04-21T14:37:20.459Z,98524.43
2019-04-21T14:40:01.877Z,98532.39
2019-04-21T14:42:32.012Z,98527.45
2019-04-21T14:45:07.329Z,98539.79
2019-04-21T14:48:04.995Z,98538.41
2019-04-21T14:51:11.218Z,98541.45
2019-04-21T14:54:02.010Z,98553.53
2019-04-21T14:56:37.481Z,98550.25
2019-04-21T14:59:12.948Z,98548.59
2019-04-21T15:01:47.208Z,98548.84
2019-04-21T15:04:22.379Z,98554.89
2019-04-21T15:06:57.400Z,98548.83
2019-04-21T15:09:32.309Z,98554.33
2019-04-21T15:12:08.005Z,98560.92
2019-04-21T15:14:42.553Z,98564.76
2019-04-21T15:17:19.530Z,98567.79
2019-04-21T15:20:00.721Z,98567.50
2019-04-21T15:22:30.339Z,98571.09
2019-04-21T15:25:05.860Z,98571.48
2019-04-21T15:27:41.137Z,98573.89
2019-04-21T15:30:16.465Z,98569.18
2019-04-21T15:32:50.918Z,98572.77
2019-04-21T15:35:26.962Z,98579.89
2019-04-21T15:38:02.069Z,98579.89
2019-04-21T15:40:44.636Z,98576.03
2019-04-21T15:43:12.645Z,98581.81
2019-04-21T15:45:46.964Z,98584.28
2019-04-21T15:48:22.326Z,98584.84
2019-04-21T15:50:58.871Z,98595.28
2019-04-21T15:53:34.200Z,98593.05
2019-04-21T15:56:28.872Z,98595.52
2019-04-21T15:59:30.587Z,98596.08
2019-04-21T16:02:22.361Z,98601.28
2019-04-21T16:04:56.831Z,98605.66
2019-04-21T16:07:31.892Z,98611.16
2019-04-21T16:10:09.887Z,98612.02
2019-04-21T16:12:43.638Z,98607.62
2019-04-21T16:15:18.850Z,98611.75
2019-04-21T16:17:53.358Z,98615.30
2019-04-21T16:20:28.171Z,98614.22
2019-04-21T16:23:02.428Z,98618.31
2019-04-21T16:25:36.997Z,98618.31
2019-04-21T16:28:11.483Z,98622.97
2019-04-21T16:30:46.580Z,98616.66
2019-04-21T16:33:21.090Z,98622.41
2019-04-21T16:35:56.008Z,98614.42
2019-04-21T16:38:31.424Z,98619.91
2019-04-21T16:41:09.197Z,98615.80
2019-04-21T16:43:43.013Z,98618.23
2019-04-21T16:46:17.877Z,98616.05
2019-04-21T16:48:53.478Z,98624.55
2019-04-21T16:51:28.471Z,98619.61
2019-04-21T16:54:08.330Z,98620.70
2019-04-21T16:56:52.118Z,98624.23
2019-04-21T16:59:32.566Z,98631.63
2019-04-21T17:02:07.115Z,98631.63
2019-04-21T17:04:42.511Z,98626.67
2019-04-21T17:07:17.929Z,98626.77
2019-04-21T17:09:52.718Z,98619.56
2019-04-21T17:12:28.751Z,98633.31
2019-04-21T17:15:18.941Z,98619.01
2019-04-21T17:18:00.214Z,98626.04
2019-04-21T17:20:29.944Z,98630.36
2019-04-21T17:22:51.506Z,98641.90
2019-04-21T17:25:27.833Z,98632.52
2019-04-21T17:28:01.944Z,98628.09
2019-04-21T17:30:36.701Z,98632.75
2019-04-21T17:33:16.041Z,98629.43
2019-04-21T17:35:47.327Z,98623.70
2019-04-21T17:38:21.885Z,98629.13
2019-04-21T17:41:11.052Z,98623.14
2019-04-21T17:43:32.265Z,98622.45
2019-04-21T17:46:06.916Z,98622.83
2019-04-21T17:48:42.871Z,98617.22
2019-04-21T17:51:25.822Z,98614.08
2019-04-21T17:54:13.652Z,98611.39
2019-04-21T17:57:05.550Z,98607.13
2019-04-21T17:59:50.881Z,98607.86
2019-04-21T18:02:11.040Z,98605.34
2019-04-21T18:04:49.261Z,98602.56
2019-04-21T18:07:31.543Z,98606.58
2019-04-21T18:10:15.939Z,98603.33
2019-04-21T18:12:36.160Z,98599.23
2019-04-21T18:15:17.583Z,98597.01
2019-04-21T18:17:34.551Z,98597.78
2019-04-21T18:20:10.031Z,98594.15
2019-04-21T18:23:15.356Z,98591.76
2019-04-21T18:25:53.949Z,98592.36
2019-04-21T18:28:20.775Z,98595.56
2019-04-21T18:31:16.425Z,98599.66
2019-04-21T18:34:13.876Z,98596.33
2019-04-21T18:36:52.142Z,98598.58
2019-04-21T18:39:53.619Z,98596.67
2019-04-21T18:42:42.134Z,98590.78
2019-04-21T18:45:48.027Z,98593.17
2019-04-21T18:48:41.208Z,98595.34
2019-04-21T18:51:32.722Z,98591.36
2019-04-21T18:54:31.349Z,98589.51
2019-04-21T18:56:53.618Z,98586.91
2019-04-21T18:59:27.069Z,98588.31
2019-04-21T19:02:02.447Z,98583.69
2019-04-21T19:04:35.190Z,98579.55
2019-04-21T19:07:19.863Z,98575.19
2019-04-21T19:10:20.510Z,98567.31
2019-04-21T19:13:05.986Z,98570.26
2019-04-21T19:15:17.847Z,98567.70
2019-04-21T19:18:16.999Z,98567.40
2019-04-21T19:20:31.105Z,98569.02
2019-04-21T19:23:00.310Z,98565.45
2019-04-21T19:25:45.130Z,98567.91
2019-04-21T19:28:16.282Z,98568.61
2019-04-21T19:30:57.507Z,98573.23
2019-04-21T19:33:27.026Z,98570.05
2019-04-21T19:35:47.486Z,98568.80
2019-04-21T19:38:31.719Z,98564.92
2019-04-21T19:41:15.608Z,98573.64
2019-04-21T19:43:53.670Z,98563.52
2019-04-21T19:46:30.649Z,98572.61
2019-04-21T19:49:13.470Z,98567.08
2019-04-21T19:51:37.772Z,98564.28
2019-04-21T19:54:12.627Z,98567.61
2019-04-21T19:56:38.498Z,98567.31
2019-04-21T19:59:18.572Z,98562.80
2019-04-21T20:01:49.958Z,98557.04
2019-04-21T20:04:34.387Z,98554.94
2019-04-21T20:07:17.396Z,98559.42
2019-04-21T20:09:55.899Z,98566.30
2019-04-21T20:12:36.585Z,98557.08
2019-04-21T20:15:23.248Z,98548.11
2019-04-21T20:17:42.441Z,98544.53
2019-04-21T20:20:03.746Z,98541.07
2019-04-21T20:22:42.278Z,98534.86
2019-04-21T20:25:19.061Z,98534.94
2019-04-21T20:27:59.069Z,98536.26
2019-04-21T20:30:42.474Z,98532.63
2019-04-21T20:33:41.629Z,98533.74
2019-04-21T20:38:28.870Z,98528.58
2019-04-21T20:40:59.794Z,98529.42
2019-04-21T20:43:47.156Z,98529.13
2019-04-21T20:46:15.619Z,98527.80
2019-04-21T20:48:52.320Z,98521.45
2019-04-21T20:51:36.243Z,98520.68
2019-04-21T20:54:07.449Z,98524.52
2019-04-21T20:56:42.020Z,98525.55
2019-04-21T20:59:19.418Z,98515.58
2019-04-21T21:01:57.911Z,98518.09
2019-04-21T21:04:27.987Z,98522.05
2019-04-21T21:07:25.556Z,98516.92
2019-04-21T21:09:54.506Z,98509.35
2019-04-21T21:12:34.314Z,98511.72
2019-04-21T21:14:54.038Z,98514.19
2019-04-21T21:20:16.362Z,98507.17
2019-04-21T21:22:43.927Z,98508.19
2019-04-21T21:25:36.626Z,98506.41
2019-04-21T21:27:55.256Z,98508.37
2019-04-21T21:30:34.809Z,98501.84
2019-04-21T21:33:17.149Z,98501.34
2019-04-21T21:35:41.507Z,98499.56
2019-04-21T21:38:28.219Z,98499.98
2019-04-21T21:40:57.370Z,98494.76
2019-04-21T21:43:24.798Z,98495.38
2019-04-21T21:46:02.650Z,98491.45
2019-04-21T21:48:48.945Z,98491.32
2019-04-21T21:51:19.188Z,98494.30
2019-04-21T21:53:45.969Z,98489.56
2019-04-21T21:56:20.607Z,98496.59
2019-04-21T21:58:56.965Z,98488.95
2019-04-21T22:01:38.009Z,98490.80
2019-04-21T22:04:13.295Z,98490.66
2019-04-21T22:06:50.692Z,98482.79
2019-04-21T22:09:19.868Z,98490.50
2019-04-21T22:11:57.841Z,98491.13
2019-04-21T22:14:37.189Z,98489.12
2019-04-21T22:17:21.417Z,98492.70
2019-04-21T22:20:05.320Z,98496.23
2019-04-21T22:22:32.469Z,98491.33
2019-04-21T22:25:04.539Z,98493.23
2019-04-21T22:27:30.798Z,98504.80
2019-04-21T22:30:09.002Z,98506.13
2019-04-21T22:32:50.276Z,98507.45
2019-04-21T22:35:27.307Z,98506.64
2019-04-21T22:38:10.192Z,98504.78
2019-04-21T22:40:46.616Z,98508.64
2019-04-21T22:43:19.814Z,98507.80
2019-04-21T22:45:45.229Z,98510.53
2019-04-21T22:48:22.783Z,98514.72
2019-04-21T22:50:56.207Z,98516.52
2019-04-21T22:53:37.440Z,98514.31
2019-04-21T22:56:14.939Z,98518.06
2019-04-21T22:58:44.455Z,98519.49
2019-04-21T23:01:26.751Z,98524.84
2019-04-21T23:03:59.242Z,98520.45
2019-04-21T23:06:34.360Z,98521.26
2019-04-21T23:09:11.059Z,98524.78
2019-04-21T23:11:49.187Z,98531.50
2019-04-21T23:14:21.570Z,98533.67
2019-04-21T23:17:14.935Z,98530.03
2019-04-21T23:19:46.043Z,98530.23
2019-04-21T23:22:31.276Z,98532.98
2019-04-21T23:25:09.441Z,98532.36
2019-04-21T23:27:38.744Z,98536.75
2019-04-21T23:30:25.833Z,98536.28
2019-04-21T23:32:47.880Z,98550.10
2019-04-21T23:35:19.637Z,98552.78
2019-04-21T23:37:55.694Z,98555.13
2019-04-21T23:40:27.848Z,98552.65
2019-04-21T23:43:09.699Z,98559.66
2019-04-21T23:45:40.900Z,98568.67
2019-04-21T23:48:27.137Z,98565.75
2019-04-21T23:50:55.089Z,98573.89
2019-04-21T23:53:23.981Z,98568.80
2019-04-21T23:55:59.212Z,98573.28
2019-04-21T23:58:36.250Z,98576.56
